Time;durP1;ratioP1;P1;durP2;ratioP2;P2;SDS_P1;SDS_P2;PMS_P1;PMS_P2;Temp;Humidity;BMP_temperature;BMP_pressure;BME280_temperature;BME280_humidity;BME280_pressure;Samples;Min_cycle;Max_cycle;Signal;HPM_P1;HPM_P2
2023/03/05 00:01:23;;;;;;;3.30;1.37;;;22.00;54.50;;;;;;4919620;29;20464;-93
2023/03/05 00:03:51;;;;;;;1.70;1.00;;;22.00;54.50;;;;;;4919735;29;20471;-94
2023/03/05 00:06:19;;;;;;;1.70;1.20;;;22.10;54.60;;;;;;4920149;29;20455;-95
2023/03/05 00:08:47;;;;;;;2.57;1.70;;;22.00;54.50;;;;;;4919553;29;20458;-94
2023/03/05 00:11:14;;;;;;;1.30;1.10;;;22.00;54.40;;;;;;4919228;29;20522;-95
2023/03/05 00:13:41;;;;;;;1.87;1.50;;;22.00;54.40;;;;;;4919623;29;20520;-95
2023/03/05 00:16:10;;;;;;;1.77;1.10;;;22.00;54.40;;;;;;4919980;29;20512;-95
2023/03/05 00:18:38;;;;;;;4.53;1.60;;;22.00;54.40;;;;;;4919818;29;20448;-93
2023/03/05 00:21:05;;;;;;;1.20;1.10;;;21.90;54.40;;;;;;4919195;29;20474;-93
2023/03/05 00:23:33;;;;;;;1.30;1.10;;;21.90;54.40;;;;;;4920101;29;20458;-96
2023/03/05 00:26:02;;;;;;;2.00;1.30;;;21.90;54.40;;;;;;4919475;29;20530;-94
2023/03/05 00:28:29;;;;;;;2.00;1.20;;;21.90;54.30;;;;;;4918823;29;20444;-93
2023/03/05 00:31:00;;;;;;;1.70;1.20;;;21.90;54.40;;;;;;4918979;29;20581;-94
2023/03/05 00:33:29;;;;;;;2.27;1.60;;;22.00;54.40;;;;;;4918960;29;20911;-93
2023/03/05 00:35:56;;;;;;;1.90;1.70;;;21.90;54.30;;;;;;4919260;29;20452;-94
2023/03/05 00:38:22;;;;;;;1.13;0.80;;;21.90;54.40;;;;;;4919434;29;20462;-95
2023/03/05 00:40:51;;;;;;;2.90;1.10;;;21.80;54.20;;;;;;4919729;29;20455;-94
2023/03/05 00:43:18;;;;;;;2.07;1.43;;;21.80;54.20;;;;;;4919481;29;20933;-95
2023/03/05 00:45:45;;;;;;;2.90;1.30;;;21.80;54.20;;;;;;4919203;29;20477;-95
2023/03/05 00:48:12;;;;;;;3.83;1.27;;;21.80;54.20;;;;;;4919575;29;20462;-93
2023/03/05 00:50:39;;;;;;;2.37;1.27;;;21.80;54.20;;;;;;4919540;29;20487;-95
2023/03/05 00:53:06;;;;;;;1.70;1.20;;;21.80;54.20;;;;;;4919337;29;20543;-93
2023/03/05 00:55:34;;;;;;;1.93;1.23;;;21.80;54.20;;;;;;4919213;29;20454;-94
2023/03/05 00:58:03;;;;;;;1.83;1.00;;;21.80;54.10;;;;;;4904872;29;20783;-94
2023/03/05 01:00:30;;;;;;;1.70;1.20;;;21.80;54.20;;;;;;4920232;29;20479;-93
2023/03/05 01:02:57;;;;;;;2.17;1.10;;;21.80;54.20;;;;;;4921118;29;20456;-93
2023/03/05 01:05:23;;;;;;;1.60;1.20;;;21.80;54.10;;;;;;4921465;29;20578;-93
2023/03/05 01:07:52;;;;;;;2.27;0.93;;;21.80;54.10;;;;;;4922220;29;20480;-93
2023/03/05 01:10:19;;;;;;;1.67;1.10;;;21.70;54.00;;;;;;4923084;29;20527;-94
2023/03/05 01:12:46;;;;;;;1.20;1.00;;;21.70;54.10;;;;;;4926543;29;20455;-94
2023/03/05 01:15:21;;;;;;;1.70;1.50;;;21.70;54.10;;;;;;4939401;29;20478;-93
2023/03/05 01:17:48;;;;;;;1.40;1.00;;;21.70;54.00;;;;;;4937589;29;20455;-93
2023/03/05 01:20:19;;;;;;;1.70;1.20;;;21.70;54.00;;;;;;4920381;29;20456;-93
2023/03/05 01:22:46;;;;;;;1.60;1.03;;;21.70;54.00;;;;;;4919335;29;20456;-93
2023/03/05 01:25:14;;;;;;;3.43;1.30;;;21.70;54.00;;;;;;4919491;29;20459;-94
2023/03/05 01:27:41;;;;;;;1.40;1.10;;;21.70;53.90;;;;;;4918345;29;20452;-93
2023/03/05 01:30:09;;;;;;;2.03;1.00;;;21.80;54.10;;;;;;4918183;29;20440;-94
2023/03/05 01:32:38;;;;;;;1.60;1.30;;;21.70;54.00;;;;;;4918103;29;20458;-93
2023/03/05 01:35:06;;;;;;;2.00;0.87;;;21.70;54.00;;;;;;4918130;29;20444;-95
2023/03/05 01:37:33;;;;;;;1.47;1.17;;;21.70;54.00;;;;;;4917764;29;20531;-93
2023/03/05 01:40:00;;;;;;;1.60;1.30;;;21.70;54.00;;;;;;4901215;29;20444;-95
2023/03/05 01:42:27;;;;;;;2.43;1.00;;;21.70;53.90;;;;;;4918195;29;20572;-93
2023/03/05 01:45:02;;;;;;;1.67;1.20;;;21.60;53.90;;;;;;4917709;29;20538;-95
2023/03/05 01:47:29;;;;;;;1.77;1.20;;;21.80;54.10;;;;;;4918102;29;20460;-93
2023/03/05 01:49:58;;;;;;;1.80;0.97;;;21.60;53.80;;;;;;4918233;29;20464;-94
2023/03/05 01:52:26;;;;;;;1.40;1.13;;;21.60;53.80;;;;;;4917907;29;20479;-95
2023/03/05 01:54:56;;;;;;;1.37;1.27;;;21.60;53.90;;;;;;4917713;29;20460;-94
2023/03/05 01:57:27;;;;;;;1.93;1.23;;;21.60;53.90;;;;;;4901396;29;20457;-93
2023/03/05 01:59:59;;;;;;;1.70;1.10;;;21.70;53.90;;;;;;4918567;29;20537;-93
2023/03/05 02:02:26;;;;;;;1.87;0.97;;;21.60;53.80;;;;;;4918918;29;20799;-94
2023/03/05 02:04:59;;;;;;;1.70;1.20;;;21.60;53.80;;;;;;4917893;29;20542;-93
2023/03/05 02:07:26;;;;;;;1.80;1.20;;;21.60;53.90;;;;;;4920848;29;20527;-95
2023/03/05 02:09:53;;;;;;;1.60;1.20;;;21.60;53.80;;;;;;4921720;29;20448;-94
2023/03/05 02:12:20;;;;;;;2.07;1.30;;;21.60;53.80;;;;;;4922020;29;20493;-95
2023/03/05 02:14:57;;;;;;;1.50;0.93;;;21.70;53.90;;;;;;4921679;29;20448;-94
2023/03/05 02:17:25;;;;;;;1.93;0.90;;;21.60;53.80;;;;;;4922623;29;20443;-94
2023/03/05 02:19:54;;;;;;;2.23;1.20;;;21.50;53.80;;;;;;4921710;29;20479;-93
2023/03/05 02:22:24;;;;;;;1.30;1.03;;;21.60;53.80;;;;;;4921592;29;20491;-94
2023/03/05 02:24:51;;;;;;;1.10;0.93;;;21.60;53.80;;;;;;4921774;29;20463;-93
2023/03/05 02:27:21;;;;;;;1.53;1.00;;;21.50;53.70;;;;;;4921994;29;20460;-95
2023/03/05 02:29:50;;;;;;;1.23;0.93;;;21.50;53.70;;;;;;4921871;29;20540;-94
2023/03/05 02:32:18;;;;;;;1.30;1.07;;;21.50;53.80;;;;;;4921117;29;20507;-96
2023/03/05 02:34:44;;;;;;;1.30;1.00;;;21.50;53.70;;;;;;4921366;29;20601;-94
2023/03/05 02:37:11;;;;;;;1.30;1.10;;;21.70;53.80;;;;;;4921615;29;20534;-94
2023/03/05 02:39:40;;;;;;;1.70;1.13;;;21.50;53.70;;;;;;4921217;29;20451;-94
2023/03/05 02:42:07;;;;;;;1.33;1.07;;;21.50;53.70;;;;;;4922398;29;20460;-94
2023/03/05 02:44:34;;;;;;;1.40;1.00;;;21.50;53.70;;;;;;4922075;29;20479;-93
2023/03/05 02:47:01;;;;;;;1.60;1.07;;;21.50;53.70;;;;;;4922168;29;20440;-93
2023/03/05 02:49:28;;;;;;;1.40;1.10;;;21.60;53.70;;;;;;4922011;29;20477;-95
2023/03/05 02:51:55;;;;;;;1.77;1.20;;;21.40;53.60;;;;;;4921590;29;20534;-96
2023/03/05 02:54:22;;;;;;;1.40;1.10;;;21.60;53.70;;;;;;4921931;29;21025;-93
2023/03/05 02:56:50;;;;;;;1.50;1.13;;;21.50;53.70;;;;;;4921961;29;20488;-93
2023/03/05 02:59:17;;;;;;;1.20;0.93;;;21.40;53.50;;;;;;4921154;29;20451;-93
2023/03/05 03:01:44;;;;;;;2.23;1.27;;;21.40;53.50;;;;;;4921973;29;20516;-93
2023/03/05 03:04:11;;;;;;;1.90;1.20;;;21.50;53.60;;;;;;4921399;29;20450;-93
2023/03/05 03:06:38;;;;;;;2.37;1.10;;;21.40;53.50;;;;;;4921920;29;20531;-93
2023/03/05 03:09:05;;;;;;;1.33;0.90;;;21.40;53.50;;;;;;4922429;29;20458;-93
2023/03/05 03:11:32;;;;;;;2.17;1.40;;;21.40;53.60;;;;;;4921711;29;20586;-94
2023/03/05 03:14:01;;;;;;;1.20;0.90;;;21.40;53.50;;;;;;4921957;29;20849;-93
2023/03/05 03:16:29;;;;;;;1.47;1.00;;;21.40;53.50;;;;;;4921649;29;20478;-93
2023/03/05 03:18:56;;;;;;;1.50;1.00;;;21.60;53.70;;;;;;4922127;29;20444;-95
2023/03/05 03:21:26;;;;;;;1.33;1.13;;;21.40;53.50;;;;;;4922691;29;20465;-95
2023/03/05 03:23:53;;;;;;;1.63;1.40;;;21.40;53.50;;;;;;4941625;29;20412;-92
2023/03/05 03:26:20;;;;;;;1.70;1.47;;;21.40;53.50;;;;;;4943951;29;20460;-94
2023/03/05 03:28:48;;;;;;;1.97;1.30;;;21.40;53.40;;;;;;4927979;29;20463;-94
2023/03/05 03:31:16;;;;;;;2.00;1.80;;;21.50;53.50;;;;;;4933911;29;21066;-94
2023/03/05 03:33:43;;;;;;;2.00;1.27;;;21.40;53.50;;;;;;4923114;29;20451;-93
2023/03/05 03:36:10;;;;;;;2.20;1.60;;;21.40;53.50;;;;;;4924829;29;20481;-94
2023/03/05 03:38:37;;;;;;;1.60;1.30;;;21.40;53.40;;;;;;4907557;29;20444;-95
2023/03/05 03:41:06;;;;;;;2.20;1.50;;;21.40;53.50;;;;;;4925527;29;20484;-94
2023/03/05 03:43:33;;;;;;;1.70;1.20;;;21.40;53.40;;;;;;4928192;29;20447;-95
2023/03/05 03:46:03;;;;;;;1.53;1.37;;;21.40;53.40;;;;;;4931026;29;20455;-95
2023/03/05 03:48:31;;;;;;;1.30;1.10;;;21.40;53.40;;;;;;4943034;29;20436;-93
2023/03/05 03:50:59;;;;;;;1.60;1.17;;;21.40;53.40;;;;;;4940367;29;20506;-93
2023/03/05 03:53:26;;;;;;;1.50;1.40;;;21.40;53.40;;;;;;4929588;29;20535;-93
2023/03/05 03:55:58;;;;;;;1.87;1.33;;;21.50;53.50;;;;;;4926131;29;20532;-93
2023/03/05 03:58:25;;;;;;;1.70;1.40;;;21.50;53.50;;;;;;4927576;29;20440;-96
2023/03/05 04:00:52;;;;;;;2.17;1.47;;;21.30;53.30;;;;;;4926199;29;20456;-95
2023/03/05 04:03:19;;;;;;;2.00;1.47;;;21.30;53.30;;;;;;4925909;29;20452;-96
2023/03/05 04:05:48;;;;;;;1.40;1.20;;;21.30;53.30;;;;;;4924624;29;20523;-95
2023/03/05 04:08:17;;;;;;;1.47;1.37;;;21.30;53.30;;;;;;4925335;29;20944;-95
2023/03/05 04:10:44;;;;;;;1.40;1.13;;;21.30;53.30;;;;;;4925119;29;20546;-93
2023/03/05 04:13:11;;;;;;;1.53;1.33;;;21.50;53.40;;;;;;4924308;29;20455;-95
2023/03/05 04:15:38;;;;;;;1.87;1.30;;;21.30;53.30;;;;;;4925767;29;20958;-93
2023/03/05 04:18:05;;;;;;;1.60;1.20;;;21.30;53.30;;;;;;4925799;29;20566;-96
2023/03/05 04:20:32;;;;;;;1.20;1.03;;;21.20;53.20;;;;;;4926050;29;20472;-96
2023/03/05 04:23:00;;;;;;;1.97;1.30;;;21.20;53.20;;;;;;4925493;29;20467;-93
2023/03/05 04:25:28;;;;;;;1.57;1.30;;;21.30;53.30;;;;;;4923904;29;20448;-94
2023/03/05 04:27:54;;;;;;;2.30;1.70;;;21.30;53.30;;;;;;4923583;29;20494;-93
2023/03/05 04:30:22;;;;;;;1.57;1.30;;;21.20;53.20;;;;;;4920572;29;20475;-94
2023/03/05 04:32:49;;;;;;;1.40;1.30;;;21.30;53.30;;;;;;4921188;29;20487;-96
2023/03/05 04:35:16;;;;;;;1.60;1.50;;;21.30;53.30;;;;;;4922373;29;20462;-96
2023/03/05 04:37:42;;;;;;;2.93;1.50;;;21.20;53.20;;;;;;4920788;29;20462;-93
2023/03/05 04:40:14;;;;;;;1.53;1.40;;;21.30;53.30;;;;;;4922519;29;20778;-95
2023/03/05 04:42:41;;;;;;;2.80;1.67;;;21.30;53.20;;;;;;4923424;29;20514;-94
2023/03/05 04:45:09;;;;;;;2.33;1.30;;;21.20;53.20;;;;;;4923390;29;20456;-93
2023/03/05 04:47:37;;;;;;;1.50;1.27;;;21.20;53.10;;;;;;4924876;29;20516;-95
2023/03/05 04:50:06;;;;;;;1.57;1.47;;;21.20;53.20;;;;;;4924285;29;20538;-96
2023/03/05 04:52:33;;;;;;;3.03;1.70;;;21.20;53.20;;;;;;4924762;29;20498;-94
2023/03/05 04:55:02;;;;;;;1.60;1.30;;;21.40;53.30;;;;;;4924903;29;20440;-96
2023/03/05 04:57:30;;;;;;;1.97;1.63;;;21.20;53.20;;;;;;4924220;29;20555;-94
2023/03/05 04:59:58;;;;;;;2.17;1.43;;;21.20;53.10;;;;;;4923054;29;20837;-94
2023/03/05 05:02:25;;;;;;;1.80;1.37;;;21.20;53.10;;;;;;4922367;29;20451;-96
2023/03/05 05:04:53;;;;;;;1.90;1.33;;;21.20;53.10;;;;;;4904719;29;20486;-96
2023/03/05 05:07:21;;;;;;;1.30;1.20;;;21.20;53.10;;;;;;4922225;29;20936;-96
2023/03/05 05:09:48;;;;;;;2.23;1.53;;;21.40;53.30;;;;;;4921403;29;20862;-95
2023/03/05 05:12:15;;;;;;;1.50;1.20;;;21.20;53.10;;;;;;4923159;29;20570;-94
2023/03/05 05:14:43;;;;;;;1.93;1.37;;;21.20;53.10;;;;;;4921523;29;20472;-96
2023/03/05 05:17:10;;;;;;;3.23;1.47;;;21.20;53.10;;;;;;4921706;29;20451;-94
2023/03/05 05:19:37;;;;;;;2.60;1.77;;;21.20;53.10;;;;;;4922344;29;20627;-94
2023/03/05 05:22:04;;;;;;;2.27;1.60;;;21.20;53.10;;;;;;4922622;29;20494;-95
2023/03/05 05:24:31;;;;;;;1.40;1.20;;;21.20;53.10;;;;;;4921400;29;20451;-95
2023/03/05 05:26:58;;;;;;;1.87;1.10;;;21.20;53.00;;;;;;4921718;29;20808;-94
2023/03/05 05:29:25;;;;;;;1.73;1.40;;;21.30;53.20;;;;;;4922502;29;20457;-93
2023/03/05 05:31:55;;;;;;;1.43;1.30;;;21.10;53.00;;;;;;4921027;29;20498;-94
2023/03/05 05:34:23;;;;;;;1.30;1.20;;;21.20;53.10;;;;;;4921363;29;20460;-96
2023/03/05 05:36:50;;;;;;;1.60;0.90;;;21.20;53.10;;;;;;4920759;29;20479;-95
2023/03/05 05:39:17;;;;;;;1.70;1.03;;;21.10;53.10;;;;;;4921645;29;20456;-95
2023/03/05 05:41:44;;;;;;;2.33;1.40;;;21.10;53.00;;;;;;4922735;29;20451;-96
2023/03/05 05:44:12;;;;;;;1.40;1.20;;;21.10;53.00;;;;;;4924166;29;20453;-96
2023/03/05 05:46:39;;;;;;;2.03;1.57;;;21.10;53.00;;;;;;4926232;29;20459;-94
2023/03/05 05:49:08;;;;;;;1.93;1.60;;;21.10;53.00;;;;;;4925452;29;20444;-94
2023/03/05 05:51:36;;;;;;;1.50;1.30;;;21.10;53.00;;;;;;4926731;29;20575;-95
2023/03/05 05:56:49;;;;;;;2.00;1.30;;;21.10;53.00;;;;;;4921541;29;20440;-95
2023/03/05 05:59:15;;;;;;;1.70;1.27;;;21.10;53.00;;;;;;4906809;29;20539;-95
2023/03/05 06:01:42;;;;;;;1.87;1.63;;;21.10;53.00;;;;;;4922003;29;20452;-96
2023/03/05 06:04:11;;;;;;;1.50;1.30;;;21.10;53.00;;;;;;4923689;29;20542;-95
2023/03/05 06:06:37;;;;;;;1.30;1.03;;;21.10;52.90;;;;;;4923823;29;20993;-94
2023/03/05 06:09:05;;;;;;;1.20;1.10;;;21.10;53.00;;;;;;4925596;29;20444;-96
2023/03/05 06:11:32;;;;;;;1.70;1.23;;;21.10;52.90;;;;;;4925184;29;20523;-94
2023/03/05 06:14:01;;;;;;;1.30;1.00;;;21.10;53.00;;;;;;4926877;29;20491;-94
2023/03/05 06:16:29;;;;;;;1.63;1.10;;;21.10;53.00;;;;;;4930732;29;20444;-94
2023/03/05 06:18:56;;;;;;;1.70;1.27;;;21.10;53.00;;;;;;4940870;29;20471;-93
2023/03/05 06:21:27;;;;;;;1.80;1.33;;;21.10;52.90;;;;;;4936840;29;20805;-95
2023/03/05 06:23:54;;;;;;;1.43;1.07;;;21.10;53.00;;;;;;4923755;29;20772;-94
2023/03/05 06:26:22;;;;;;;1.47;1.10;;;21.10;53.00;;;;;;4921858;29;20464;-96
2023/03/05 06:28:49;;;;;;;2.30;1.60;;;21.00;52.90;;;;;;4921397;29;20931;-94
2023/03/05 06:31:20;;;;;;;1.40;1.10;;;21.00;52.90;;;;;;4919598;29;20558;-95
2023/03/05 06:33:48;;;;;;;3.00;1.43;;;21.00;52.90;;;;;;4919831;29;21029;-95
2023/03/05 06:36:17;;;;;;;1.40;1.30;;;21.00;52.90;;;;;;4919135;29;20915;-95
2023/03/05 06:38:46;;;;;;;1.50;1.23;;;21.20;53.10;;;;;;4918192;29;20952;-94
2023/03/05 06:41:15;;;;;;;1.63;1.17;;;21.00;53.00;;;;;;4918690;29;20456;-95
2023/03/05 06:43:44;;;;;;;1.80;1.00;;;21.00;53.00;;;;;;4919033;29;20811;-94
2023/03/05 06:46:16;;;;;;;2.17;1.47;;;21.00;53.00;;;;;;4919646;29;20542;-95
2023/03/05 06:48:43;;;;;;;1.63;1.20;;;21.00;52.90;;;;;;4920141;29;20443;-94
2023/03/05 06:51:14;;;;;;;1.53;1.10;;;21.00;53.00;;;;;;4920984;29;20524;-95
2023/03/05 06:53:41;;;;;;;1.53;1.17;;;21.00;53.00;;;;;;4925135;29;20971;-95
2023/03/05 06:56:15;;;;;;;1.40;1.20;;;21.00;53.00;;;;;;4924777;29;20547;-96
2023/03/05 06:58:43;;;;;;;1.90;1.17;;;21.00;53.00;;;;;;4925144;29;20911;-96
2023/03/05 07:01:10;;;;;;;1.30;1.10;;;21.00;53.00;;;;;;4924812;29;20487;-95
2023/03/05 07:03:38;;;;;;;1.30;1.10;;;21.00;53.00;;;;;;4923092;29;20511;-95
2023/03/05 07:06:07;;;;;;;2.47;1.27;;;21.00;53.00;;;;;;4922860;29;20447;-96
2023/03/05 07:08:34;;;;;;;1.37;1.00;;;21.00;53.00;;;;;;4923872;29;20531;-95
2023/03/05 07:11:02;;;;;;;1.20;0.90;;;21.00;53.00;;;;;;4922394;29;20455;-96
2023/03/05 07:13:31;;;;;;;1.40;1.20;;;21.00;53.00;;;;;;4922361;29;20490;-93
2023/03/05 07:15:58;;;;;;;1.40;1.00;;;21.00;53.00;;;;;;4923584;29;20539;-94
2023/03/05 07:18:25;;;;;;;1.50;1.13;;;21.00;53.00;;;;;;4907983;29;20458;-96
2023/03/05 07:20:52;;;;;;;2.17;1.27;;;20.90;52.90;;;;;;4925673;29;20554;-96
2023/03/05 07:23:19;;;;;;;1.50;1.10;;;20.90;52.90;;;;;;4925530;29;20998;-95
2023/03/05 07:25:46;;;;;;;1.20;1.07;;;21.00;53.00;;;;;;4925375;29;20458;-96
2023/03/05 07:28:13;;;;;;;3.10;1.43;;;21.10;53.10;;;;;;4926468;29;20543;-95
2023/03/05 07:30:42;;;;;;;1.60;1.27;;;20.90;52.90;;;;;;4925274;29;20796;-94
2023/03/05 07:33:09;;;;;;;1.43;1.07;;;20.90;52.90;;;;;;4923047;29;21070;-95
2023/03/05 07:35:45;;;;;;;1.70;1.30;;;20.90;52.90;;;;;;4922259;29;20852;-95
2023/03/05 07:38:12;;;;;;;1.80;1.20;;;20.90;53.00;;;;;;4923503;29;20866;-96
2023/03/05 07:40:39;;;;;;;1.30;1.00;;;21.10;53.10;;;;;;4924393;29;20550;-95
2023/03/05 07:43:07;;;;;;;1.20;1.03;;;20.90;53.00;;;;;;4926510;29;20499;-93
2023/03/05 07:45:36;;;;;;;1.70;1.20;;;20.90;52.90;;;;;;4923372;29;20455;-94
2023/03/05 07:48:06;;;;;;;1.73;1.30;;;20.90;52.90;;;;;;4933375;29;20925;-96
2023/03/05 07:50:33;;;;;;;1.10;0.83;;;20.90;52.90;;;;;;4933150;29;20491;-95
2023/03/05 07:53:00;;;;;;;1.10;0.93;;;20.90;52.90;;;;;;4915222;29;20535;-93
2023/03/05 07:58:11;;;;;;;1.40;1.10;;;20.90;53.00;;;;;;4931901;29;20440;-96
2023/03/05 08:00:37;;;;;;;2.40;1.30;;;20.90;52.90;;;;;;4923244;29;20452;-88
2023/03/05 08:03:07;;;;;;;3.10;1.40;;;20.90;52.90;;;;;;4922189;29;20452;-96
2023/03/05 08:05:38;;;;;;;4.10;1.47;;;20.90;52.30;;;;;;4929431;29;20425;-96
2023/03/05 08:08:06;;;;;;;7.27;1.60;;;20.90;52.70;;;;;;4923901;29;20450;-90
2023/03/05 08:10:33;;;;;;;10.47;1.57;;;20.90;52.90;;;;;;4920230;29;20543;-89
2023/03/05 08:13:01;;;;;;;2.37;1.47;;;20.90;52.90;;;;;;4919544;29;20498;-89
2023/03/05 08:15:28;;;;;;;6.60;1.30;;;20.90;53.00;;;;;;4920247;29;20462;-90
2023/03/05 08:17:55;;;;;;;1.87;1.00;;;20.90;52.30;;;;;;4919213;29;20542;-90
2023/03/05 08:20:24;;;;;;;7.27;1.73;;;20.90;52.80;;;;;;4919650;29;20467;-91
2023/03/05 08:22:50;;;;;;;8.43;1.87;;;20.90;52.90;;;;;;4918911;29;20447;-91
2023/03/05 08:25:18;;;;;;;2.40;1.33;;;20.80;52.50;;;;;;4920519;29;20440;-91
2023/03/05 08:27:46;;;;;;;3.43;1.23;;;20.80;52.70;;;;;;4921761;29;20530;-91
2023/03/05 08:30:16;;;;;;;5.43;1.57;;;20.90;52.80;;;;;;4919082;29;20440;-93
2023/03/05 08:32:43;;;;;;;1.90;1.03;;;20.90;52.80;;;;;;4928152;29;20488;-91
2023/03/05 08:35:10;;;;;;;1.83;1.20;;;21.00;52.80;;;;;;4939814;29;20428;-91
2023/03/05 08:37:38;;;;;;;2.30;1.10;;;20.90;52.90;;;;;;4941164;29;20500;-91
2023/03/05 08:40:06;;;;;;;3.70;1.80;;;20.90;52.80;;;;;;4942207;29;20475;-90
2023/03/05 08:42:33;;;;;;;11.37;1.20;;;21.00;52.90;;;;;;4928558;29;20436;-91
2023/03/05 08:45:00;;;;;;;3.37;1.23;;;21.00;52.90;;;;;;4922525;29;20459;-91
2023/03/05 08:47:27;;;;;;;2.70;1.70;;;21.00;52.90;;;;;;4907011;29;20548;-91
2023/03/05 08:49:54;;;;;;;2.30;1.93;;;21.00;52.90;;;;;;4935528;29;20452;-91
2023/03/05 08:52:21;;;;;;;7.07;1.67;;;21.00;52.90;;;;;;4942164;29;20470;-91
2023/03/05 08:54:49;;;;;;;5.37;1.47;;;21.00;52.90;;;;;;4920767;29;20440;-91
2023/03/05 08:57:16;;;;;;;4.50;2.10;;;21.00;53.00;;;;;;4918386;29;20981;-91
2023/03/05 08:59:43;;;;;;;3.20;1.83;;;21.00;53.10;;;;;;4918509;29;20519;-90
2023/03/05 09:02:12;;;;;;;18.47;2.33;;;21.10;53.10;;;;;;4899971;29;20459;-90
2023/03/05 09:04:38;;;;;;;3.27;1.90;;;21.10;53.20;;;;;;4899714;29;20451;-91
2023/03/05 09:07:06;;;;;;;2.90;1.90;;;21.10;53.10;;;;;;4899070;29;20457;-91
2023/03/05 09:09:32;;;;;;;3.57;1.53;;;21.10;53.10;;;;;;4899223;29;20452;-91
2023/03/05 09:12:01;;;;;;;5.13;1.57;;;21.10;53.20;;;;;;4910670;29;20451;-91
2023/03/05 09:14:31;;;;;;;3.03;1.70;;;21.30;53.40;;;;;;4917794;29;20595;-92
2023/03/05 09:16:58;;;;;;;6.27;1.97;;;21.10;53.30;;;;;;4918041;29;20962;-91
2023/03/05 09:19:26;;;;;;;3.67;2.20;;;21.10;53.30;;;;;;4917827;29;20454;-91
2023/03/05 09:21:53;;;;;;;2.70;1.90;;;21.20;53.40;;;;;;4917944;29;20789;-92
2023/03/05 09:24:19;;;;;;;5.73;1.63;;;21.20;53.50;;;;;;4920066;29;20495;-91
2023/03/05 09:26:46;;;;;;;3.60;1.90;;;21.10;52.80;;;;;;4928392;29;20540;-91
2023/03/05 09:29:15;;;;;;;4.10;1.77;;;21.10;52.60;;;;;;4927025;29;20551;-91
2023/03/05 09:31:43;;;;;;;4.40;1.57;;;21.00;52.60;;;;;;4921433;29;20450;-91
2023/03/05 09:34:12;;;;;;;1.87;1.53;;;20.90;52.50;;;;;;4922035;29;20975;-94
2023/03/05 09:36:39;;;;;;;2.07;1.20;;;20.90;52.80;;;;;;4920192;29;20550;-91
2023/03/05 09:39:06;;;;;;;5.00;1.40;;;20.90;52.90;;;;;;4918601;29;20459;-90
2023/03/05 09:41:40;;;;;;;2.50;1.47;;;21.00;53.00;;;;;;4917700;29;20448;-91
2023/03/05 09:44:18;;;;;;;2.07;1.40;;;20.90;53.10;;;;;;4917886;29;20449;-91
2023/03/05 09:46:53;;;;;;;3.27;2.30;;;20.90;53.40;;;;;;4917780;29;20530;-90
2023/03/05 09:49:30;;;;;;;4.57;1.50;;;20.90;53.60;;;;;;4904599;29;20463;-92
2023/03/05 09:52:14;;;;;;;1.80;1.20;;;20.80;53.50;;;;;;4898984;29;21001;-92
2023/03/05 09:54:44;;;;;;;2.40;1.67;;;20.90;53.30;;;;;;4898816;29;20489;-90
2023/03/05 09:57:17;;;;;;;2.73;1.60;;;21.10;53.30;;;;;;4910778;29;20907;-94
2023/03/05 09:59:48;;;;;;;8.20;2.73;;;20.90;53.30;;;;;;4917462;29;20462;-91
2023/03/05 10:02:20;;;;;;;6.40;2.37;;;20.90;53.80;;;;;;4917778;29;20458;-91
2023/03/05 10:04:52;;;;;;;4.47;2.00;;;20.90;53.50;;;;;;4918092;29;20454;-91
2023/03/05 10:07:24;;;;;;;3.27;1.77;;;20.90;53.40;;;;;;4918688;29;20452;-92
2023/03/05 10:09:56;;;;;;;5.90;2.67;;;20.90;54.20;;;;;;4918911;29;20447;-92
2023/03/05 10:12:31;;;;;;;2.20;1.53;;;21.00;53.70;;;;;;4918543;29;20455;-93
2023/03/05 10:14:59;;;;;;;4.43;2.23;;;20.90;53.60;;;;;;4906989;29;20586;-92
2023/03/05 10:17:50;;;;;;;3.93;1.97;;;20.90;53.50;;;;;;4900071;29;20453;-92
2023/03/05 10:20:48;;;;;;;3.80;1.80;;;20.90;53.60;;;;;;4890821;29;20864;-92
2023/03/05 10:23:44;;;;;;;8.20;2.30;;;20.90;53.60;;;;;;4900056;29;20994;-92
2023/03/05 10:26:20;;;;;;;2.60;1.50;;;20.90;53.70;;;;;;4899560;29;20540;-92
2023/03/05 10:28:57;;;;;;;3.20;1.50;;;20.90;53.60;;;;;;4903218;29;20444;-91
2023/03/05 10:31:36;;;;;;;4.07;1.93;;;20.90;53.60;;;;;;4903331;29;20779;-92
2023/03/05 10:34:20;;;;;;;1.50;1.40;;;20.90;53.60;;;;;;4903206;29;20535;-92
2023/03/05 10:36:56;;;;;;;2.20;1.60;;;20.90;53.60;;;;;;4902662;29;20457;-92
2023/03/05 10:39:51;;;;;;;5.03;2.00;;;20.90;53.60;;;;;;4903180;29;20448;-92
2023/03/05 10:42:25;;;;;;;13.93;1.97;;;20.90;53.50;;;;;;4902744;29;20800;-91
2023/03/05 10:44:54;;;;;;;3.10;1.90;;;20.90;53.40;;;;;;4902885;29;20445;-92
2023/03/05 10:47:26;;;;;;;1.60;1.23;;;21.00;53.60;;;;;;4902893;29;20459;-92
2023/03/05 10:49:56;;;;;;;1.90;1.50;;;21.00;53.50;;;;;;4902501;29;20525;-91
2023/03/05 10:52:28;;;;;;;2.67;1.50;;;20.90;53.40;;;;;;4902013;29;20480;-92
2023/03/05 10:54:56;;;;;;;3.57;1.67;;;20.90;53.50;;;;;;4902659;29;20488;-92
2023/03/05 10:57:25;;;;;;;1.87;1.77;;;21.00;53.50;;;;;;4903643;29;21031;-92
2023/03/05 10:59:54;;;;;;;2.23;1.40;;;21.00;53.50;;;;;;4902338;29;20821;-92
2023/03/05 11:02:22;;;;;;;1.60;1.50;;;21.00;53.40;;;;;;4902797;29;20535;-91
2023/03/05 11:05:07;;;;;;;1.73;1.53;;;21.10;53.40;;;;;;4903387;29;20457;-92
2023/03/05 11:07:37;;;;;;;3.13;1.47;;;21.10;53.40;;;;;;4902539;29;20437;-92
2023/03/05 11:10:25;;;;;;;2.80;1.60;;;21.10;53.40;;;;;;4905139;29;20460;-92
2023/03/05 11:12:56;;;;;;;1.67;1.53;;;21.10;53.40;;;;;;4902979;29;20457;-92
2023/03/05 11:15:30;;;;;;;1.90;1.60;;;21.10;53.40;;;;;;4903788;29;20508;-92
2023/03/05 11:18:17;;;;;;;3.10;1.30;;;21.10;53.30;;;;;;4904023;29;20528;-92
2023/03/05 11:21:06;;;;;;;5.13;2.03;;;21.10;53.30;;;;;;4905141;29;20472;-92
2023/03/05 11:23:45;;;;;;;3.03;1.70;;;21.10;53.30;;;;;;4920705;29;20436;-91
2023/03/05 11:26:24;;;;;;;1.90;1.50;;;21.10;53.30;;;;;;4914068;29;20448;-93
2023/03/05 11:29:03;;;;;;;5.97;1.70;;;21.10;53.30;;;;;;4904286;29;20508;-91
2023/03/05 11:31:36;;;;;;;2.13;1.90;;;21.10;53.30;;;;;;4903020;29;20459;-91
2023/03/05 11:34:34;;;;;;;2.40;1.30;;;21.10;53.30;;;;;;4902659;29;20512;-91
2023/03/05 11:37:05;;;;;;;1.90;1.67;;;21.10;53.30;;;;;;4902151;29;20828;-91
2023/03/05 11:39:39;;;;;;;2.17;1.93;;;21.10;53.20;;;;;;4902235;29;20453;-91
2023/03/05 11:42:10;;;;;;;2.07;1.50;;;21.10;53.20;;;;;;4903864;29;20493;-92
2023/03/05 11:45:35;;;;;;;1.93;1.53;;;21.10;53.20;;;;;;4904243;29;20807;-91
2023/03/05 11:51:45;;;;;;;2.30;1.80;;;21.10;53.20;;;;;;4730969;29;20482;-92
2023/03/05 11:54:33;;;;;;;2.73;2.03;;;21.20;53.30;;;;;;4847389;29;21034;-91
2023/03/05 11:59:56;;;;;;;6.40;1.67;;;21.00;53.10;;;;;;4823040;29;20992;-92
2023/03/05 12:02:28;;;;;;;2.57;1.57;;;21.10;53.30;;;;;;4873693;29;20456;-90
2023/03/05 12:05:02;;;;;;;3.23;1.47;;;21.00;53.20;;;;;;4909576;29;20451;-91
2023/03/05 12:07:35;;;;;;;2.20;1.57;;;21.10;53.30;;;;;;4905809;29;20443;-91
2023/03/05 12:10:14;;;;;;;1.47;1.33;;;21.20;53.40;;;;;;4905757;29;20449;-91
2023/03/05 12:12:50;;;;;;;1.90;1.50;;;21.10;53.20;;;;;;4909610;29;20437;-91
2023/03/05 12:15:41;;;;;;;2.37;1.40;;;21.10;53.20;;;;;;4913967;29;21027;-90
2023/03/05 12:18:25;;;;;;;2.03;1.47;;;21.00;53.10;;;;;;4918084;29;20463;-90
2023/03/05 12:21:14;;;;;;;1.70;1.43;;;21.20;53.30;;;;;;4916952;29;20560;-91
2023/03/05 12:23:57;;;;;;;2.30;1.73;;;21.00;53.10;;;;;;4915937;29;20473;-90
2023/03/05 12:27:06;;;;;;;2.33;1.63;;;21.00;53.80;;;;;;4918907;29;20508;-89
2023/03/05 12:29:44;;;;;;;2.13;1.63;;;21.20;53.30;;;;;;4916188;29;20448;-90
2023/03/05 12:33:07;;;;;;;;;;;;;;;;;;;;;
2023/03/05 12:35:42;;;;;;;1.97;1.60;;;21.00;53.30;;;;;;4917936;29;20490;-90
2023/03/05 12:38:30;;;;;;;2.60;1.67;;;20.90;53.20;;;;;;4917750;29;20448;-90
2023/03/05 12:41:42;;;;;;;2.00;1.57;;;20.90;53.70;;;;;;4917724;29;20473;-90
2023/03/05 12:44:20;;;;;;;1.50;1.40;;;20.90;53.20;;;;;;4914991;29;20524;-91
2023/03/05 12:47:22;;;;;;;3.60;1.57;;;20.90;53.30;;;;;;4911961;29;20535;-90
2023/03/05 12:49:51;;;;;;;1.50;1.20;;;20.90;53.20;;;;;;4911558;29;20501;-91
2023/03/05 12:52:26;;;;;;;1.30;1.00;;;20.90;53.20;;;;;;4909195;29;20506;-91
2023/03/05 12:55:18;;;;;;;1.40;1.20;;;20.90;53.20;;;;;;4912191;29;20559;-91
2023/03/05 12:57:48;;;;;;;1.77;1.57;;;20.90;53.20;;;;;;4912620;29;20449;-91
2023/03/05 13:00:22;;;;;;;1.60;1.40;;;20.90;53.20;;;;;;4913927;29;20473;-91
2023/03/05 13:02:54;;;;;;;2.33;1.40;;;20.90;53.20;;;;;;4913767;29;20455;-91
2023/03/05 13:05:25;;;;;;;2.13;1.20;;;20.90;53.20;;;;;;4915082;29;20492;-90
2023/03/05 13:08:10;;;;;;;1.53;1.40;;;20.90;53.10;;;;;;4911530;29;20469;-91
2023/03/05 13:10:37;;;;;;;1.63;1.53;;;21.00;53.20;;;;;;4910429;29;20487;-89
2023/03/05 13:13:04;;;;;;;1.50;1.30;;;20.90;53.10;;;;;;4910354;29;20543;-91
2023/03/05 13:15:38;;;;;;;2.07;1.40;;;20.80;53.00;;;;;;4910863;29;20481;-90
2023/03/05 13:18:16;;;;;;;1.50;1.30;;;21.00;53.70;;;;;;4909597;29;20508;-91